createdAt,value
2018-01-05T00:01:46.883Z,24.77
2018-01-05T00:04:14.482Z,11.20
2018-01-05T00:06:42.859Z,15.17
2018-01-05T00:09:10.619Z,9.80
2018-01-05T00:11:38.115Z,19.17
2018-01-05T00:14:05.896Z,14.50
2018-01-05T00:16:33.743Z,23.47
2018-01-05T00:19:02.287Z,3.93
2018-01-05T00:21:29.776Z,12.63
2018-01-05T00:23:57.435Z,9.83
2018-01-05T00:26:24.969Z,12.10
2018-01-05T00:28:52.484Z,13.93
2018-01-05T00:31:19.991Z,5.73
2018-01-05T00:33:47.499Z,16.70
2018-01-05T00:36:15.410Z,18.90
2018-01-05T00:38:43.221Z,19.03
2018-01-05T00:41:10.934Z,13.23
2018-01-05T00:43:38.432Z,13.17
2018-01-05T00:46:05.987Z,11.17
2018-01-05T00:48:34.255Z,11.93
2018-01-05T00:51:01.996Z,15.10
2018-01-05T00:53:29.776Z,9.53
2018-01-05T00:55:57.668Z,21.03
2018-01-05T00:58:26.196Z,12.83
2018-01-05T01:00:54.099Z,17.20
2018-01-05T01:03:21.725Z,14.40
2018-01-05T01:05:49.627Z,10.43
2018-01-05T01:08:17.404Z,9.33
2018-01-05T01:10:45.191Z,12.93
2018-01-05T01:13:15.770Z,7.83
2018-01-05T01:15:43.309Z,14.37
2018-01-05T01:18:10.808Z,9.80
2018-01-05T01:20:38.512Z,21.37
2018-01-05T01:23:06.791Z,40.50
2018-01-05T01:25:34.290Z,11.73
2018-01-05T01:28:01.817Z,6.80
2018-01-05T01:30:30.075Z,15.80
2018-01-05T01:32:57.650Z,9.57
2018-01-05T01:35:25.157Z,8.30
2018-01-05T01:37:52.835Z,7.83
2018-01-05T01:40:20.327Z,3.33
2018-01-05T01:42:47.839Z,12.97
2018-01-05T01:45:15.511Z,3.20
2018-01-05T01:47:43.019Z,14.23
2018-01-05T01:50:10.934Z,6.00
2018-01-05T01:52:39.199Z,3.47
2018-01-05T01:55:06.863Z,6.03
2018-01-05T01:57:34.983Z,10.13
2018-01-05T02:00:02.516Z,5.27
2018-01-05T02:02:31.180Z,3.23
2018-01-05T02:04:58.857Z,5.53
2018-01-05T02:07:27.256Z,9.57
2018-01-05T02:09:55.643Z,7.87
2018-01-05T02:12:23.407Z,12.90
2018-01-05T02:14:50.908Z,5.80
2018-01-05T02:17:18.909Z,6.27
2018-01-05T02:19:46.408Z,5.77
2018-01-05T02:22:13.920Z,3.47
2018-01-05T02:24:41.415Z,5.90
2018-01-05T02:27:09.388Z,10.13
2018-01-05T02:29:37.141Z,5.90
2018-01-05T02:32:05.356Z,6.50
2018-01-05T02:34:33.632Z,5.67
2018-01-05T02:37:01.312Z,3.93
2018-01-05T02:39:29.111Z,10.10
2018-01-05T02:41:56.605Z,8.20
2018-01-05T02:44:24.336Z,2.20
2018-01-05T02:46:52.097Z,3.60
2018-01-05T02:49:21.283Z,1.30
2018-01-05T02:51:48.793Z,8.40
2018-01-05T02:54:16.307Z,7.87
2018-01-05T02:56:43.933Z,10.40
2018-01-05T02:59:11.434Z,4.90
2018-01-05T03:01:38.979Z,2.93
2018-01-05T03:04:06.752Z,7.43
2018-01-05T03:06:34.243Z,9.43
2018-01-05T03:09:01.967Z,5.70
2018-01-05T03:11:29.731Z,6.20
2018-01-05T03:13:57.500Z,3.40
2018-01-05T03:16:24.999Z,1.13
2018-01-05T03:18:53.700Z,10.33
2018-01-05T03:21:21.538Z,21.20
2018-01-05T03:23:49.052Z,6.00
2018-01-05T03:26:16.620Z,12.53
2018-01-05T03:28:44.139Z,3.70
2018-01-05T03:31:12.460Z,6.10
2018-01-05T03:33:39.959Z,9.40
2018-01-05T03:36:07.460Z,5.03
2018-01-05T03:38:35.131Z,7.00
2018-01-05T03:41:02.661Z,5.60
2018-01-05T03:43:30.352Z,5.10
2018-01-05T03:45:57.856Z,8.93
2018-01-05T03:48:25.571Z,8.03
2018-01-05T03:50:53.076Z,7.20
2018-01-05T03:53:21.396Z,15.20
2018-01-05T03:55:48.896Z,3.37
2018-01-05T03:58:17.891Z,6.70
2018-01-05T04:00:45.899Z,8.60
2018-01-05T04:03:13.943Z,5.03
2018-01-05T04:05:41.451Z,4.77
2018-01-05T04:08:08.950Z,7.97
2018-01-05T04:10:36.651Z,3.83
2018-01-05T04:13:04.538Z,3.10
2018-01-05T04:15:32.195Z,6.20
2018-01-05T04:18:00.204Z,11.73
2018-01-05T04:20:27.728Z,5.50
2018-01-05T04:22:55.227Z,5.73
2018-01-05T04:25:22.906Z,3.73
2018-01-05T04:27:51.935Z,4.10
2018-01-05T04:30:19.434Z,35.00
2018-01-05T04:32:47.771Z,1.87
2018-01-05T04:35:15.267Z,6.80
2018-01-05T04:37:43.282Z,7.10
2018-01-05T04:40:10.768Z,11.10
2018-01-05T04:42:38.881Z,8.93
2018-01-05T04:45:06.560Z,7.63
2018-01-05T04:47:34.458Z,12.90
2018-01-05T04:50:02.427Z,8.83
2018-01-05T04:52:29.929Z,14.53
2018-01-05T04:54:58.219Z,3.67
2018-01-05T04:57:26.039Z,19.60
2018-01-05T04:59:53.544Z,16.60
2018-01-05T05:02:21.055Z,15.43
2018-01-05T05:04:48.764Z,6.93
2018-01-05T05:07:16.746Z,6.70
2018-01-05T05:09:44.819Z,10.60
2018-01-05T05:12:12.344Z,10.13
2018-01-05T05:14:40.064Z,18.60
2018-01-05T05:17:07.559Z,8.23
2018-01-05T05:19:35.264Z,22.37
2018-01-05T05:22:02.755Z,10.20
2018-01-05T05:24:30.251Z,11.17
2018-01-05T05:26:57.959Z,13.90
2018-01-05T05:29:25.860Z,11.17
2018-01-05T05:31:53.363Z,13.80
2018-01-05T05:34:20.876Z,10.63
2018-01-05T05:36:49.326Z,7.13
2018-01-05T05:39:16.823Z,21.40
2018-01-05T05:41:44.513Z,16.87
2018-01-05T05:44:12.614Z,10.93
2018-01-05T05:46:40.376Z,12.70
2018-01-05T05:49:08.516Z,13.10
2018-01-05T05:51:36.223Z,8.80
2018-01-05T05:54:03.728Z,8.97
2018-01-05T05:56:31.402Z,10.47
2018-01-05T05:58:58.900Z,3.90
2018-01-05T06:01:26.391Z,4.60
2018-01-05T06:03:54.699Z,14.93
2018-01-05T06:06:22.178Z,11.70
2018-01-05T06:08:49.681Z,12.17
2018-01-05T06:11:17.190Z,9.30
2018-01-05T06:13:44.963Z,3.87
2018-01-05T06:16:12.459Z,4.43
2018-01-05T06:18:40.956Z,8.30
2018-01-05T06:21:08.451Z,10.43
2018-01-05T06:23:36.066Z,3.20
2018-01-05T06:26:03.671Z,11.10
2018-01-05T06:28:31.175Z,8.60
2018-01-05T06:30:59.118Z,10.57
2018-01-05T06:33:26.632Z,10.23
2018-01-05T06:35:54.144Z,12.23
2018-01-05T06:38:21.646Z,9.83
2018-01-05T06:40:49.310Z,5.20
2018-01-05T06:43:16.800Z,10.47
2018-01-05T06:45:44.324Z,6.13
2018-01-05T06:48:11.813Z,5.60
2018-01-05T06:50:39.441Z,7.90
2018-01-05T06:53:07.344Z,7.60
2018-01-05T06:55:35.085Z,7.10
2018-01-05T06:58:02.754Z,10.90
2018-01-05T07:00:30.460Z,4.40
2018-01-05T07:02:58.374Z,7.87
2018-01-05T07:05:26.040Z,20.80
2018-01-05T07:07:54.145Z,5.03
2018-01-05T07:10:21.628Z,1.70
2018-01-05T07:12:49.142Z,13.27
2018-01-05T07:15:17.108Z,10.93
2018-01-05T07:17:44.866Z,3.40
2018-01-05T07:20:12.384Z,16.93
2018-01-05T07:22:40.087Z,8.77
2018-01-05T07:25:07.586Z,14.17
2018-01-05T07:27:36.126Z,12.27
2018-01-05T07:30:03.744Z,11.53
2018-01-05T07:32:31.495Z,10.77
2018-01-05T07:34:59.203Z,3.50
2018-01-05T07:37:27.261Z,8.17
2018-01-05T07:39:55.371Z,8.07
2018-01-05T07:42:23.106Z,6.43
2018-01-05T07:44:51.000Z,19.43
2018-01-05T07:47:18.644Z,7.30
2018-01-05T07:49:46.139Z,7.53
2018-01-05T07:52:13.852Z,9.53
2018-01-05T07:54:41.350Z,17.10
2018-01-05T07:57:08.857Z,12.90
2018-01-05T07:59:37.655Z,10.13
2018-01-05T08:02:06.147Z,15.33
2018-01-05T08:04:33.661Z,14.83
2018-01-05T08:07:01.680Z,13.67
2018-01-05T08:09:29.771Z,7.07
2018-01-05T08:11:57.512Z,7.93
2018-01-05T08:14:25.008Z,5.40
2018-01-05T08:16:53.031Z,19.40
2018-01-05T08:19:20.942Z,17.57
2018-01-05T08:21:48.834Z,5.83
2018-01-05T08:24:16.339Z,12.43
2018-01-05T08:26:43.835Z,5.20
2018-01-05T08:29:11.339Z,15.87
2018-01-05T08:31:39.412Z,4.53
2018-01-05T08:34:07.174Z,14.20
2018-01-05T08:36:35.139Z,8.47
2018-01-05T08:39:02.646Z,10.30
2018-01-05T08:41:30.330Z,14.77
2018-01-05T08:43:57.827Z,8.27
2018-01-05T08:46:25.584Z,22.80
2018-01-05T08:48:54.623Z,9.93
2018-01-05T08:51:22.121Z,4.50
2018-01-05T08:53:49.873Z,9.23
2018-01-05T08:56:17.363Z,17.97
2018-01-05T08:58:45.054Z,11.10
2018-01-05T09:01:12.780Z,8.23
2018-01-05T09:03:40.544Z,9.33
2018-01-05T09:06:08.078Z,17.53
2018-01-05T09:08:35.726Z,12.53
2018-01-05T09:11:04.678Z,8.73
2018-01-05T09:13:32.167Z,9.07
2018-01-05T09:15:59.974Z,11.80
2018-01-05T09:18:28.007Z,19.93
2018-01-05T09:20:55.807Z,4.97
2018-01-05T09:23:24.076Z,13.00
2018-01-05T09:25:51.620Z,10.03
2018-01-05T09:28:19.672Z,17.30
2018-01-05T09:30:48.011Z,8.50
2018-01-05T09:33:16.448Z,7.13
2018-01-05T09:35:44.236Z,5.13
2018-01-05T09:38:12.271Z,5.40
2018-01-05T09:40:41.020Z,7.77
2018-01-05T09:43:08.755Z,10.53
2018-01-05T09:45:36.260Z,13.13
2018-01-05T09:48:04.288Z,13.00
2018-01-05T09:50:31.783Z,9.17
2018-01-05T09:53:00.235Z,8.87
2018-01-05T09:55:27.879Z,7.03
2018-01-05T09:57:55.640Z,5.33
2018-01-05T10:00:23.142Z,5.03
2018-01-05T10:02:51.395Z,12.20
2018-01-05T10:05:18.923Z,5.97
2018-01-05T10:07:46.692Z,13.13
2018-01-05T10:10:14.195Z,8.67
2018-01-05T10:12:41.917Z,7.73
2018-01-05T10:15:09.681Z,3.10
2018-01-05T10:17:37.180Z,6.20
2018-01-05T10:20:04.675Z,2.40
2018-01-05T10:22:32.944Z,7.77
2018-01-05T10:25:00.900Z,11.83
2018-01-05T10:27:28.400Z,3.43
2018-01-05T10:29:55.920Z,9.03
2018-01-05T10:32:23.415Z,3.77
2018-01-05T10:34:52.198Z,9.10
2018-01-05T10:37:20.148Z,2.87
2018-01-05T10:39:48.166Z,4.00
2018-01-05T10:42:16.592Z,7.20
2018-01-05T10:44:45.210Z,5.73
2018-01-05T10:47:12.754Z,4.13
2018-01-05T10:49:40.527Z,4.63
2018-01-05T10:52:08.279Z,5.80
2018-01-05T10:54:35.925Z,4.43
2018-01-05T10:57:03.467Z,7.30
2018-01-05T10:59:31.580Z,2.37
2018-01-05T11:01:59.335Z,3.93
2018-01-05T11:04:27.235Z,3.67
2018-01-05T11:06:54.741Z,4.93
2018-01-05T11:09:22.632Z,6.23
2018-01-05T11:11:50.257Z,5.83
2018-01-05T11:14:18.167Z,4.97
2018-01-05T11:16:45.692Z,7.00
2018-01-05T11:19:13.175Z,10.47
2018-01-05T11:21:40.796Z,13.13
2018-01-05T11:24:08.304Z,7.03
2018-01-05T11:26:35.804Z,7.13
2018-01-05T11:29:03.521Z,9.90
2018-01-05T11:31:32.819Z,22.13
2018-01-05T11:34:00.572Z,3.30
2018-01-05T11:36:28.070Z,10.27
2018-01-05T11:38:55.720Z,6.87
2018-01-05T11:41:23.640Z,12.77
2018-01-05T11:43:51.913Z,6.20
2018-01-05T11:46:19.805Z,16.30
2018-01-05T11:48:47.307Z,12.40
2018-01-05T11:51:15.839Z,3.77
2018-01-05T11:53:43.356Z,5.00
2018-01-05T11:56:11.022Z,14.30
2018-01-05T11:58:38.826Z,3.80
2018-01-05T12:01:06.333Z,9.23
2018-01-05T12:03:34.650Z,9.43
2018-01-05T12:06:02.143Z,8.37
2018-01-05T12:08:30.162Z,10.27
2018-01-05T12:10:57.655Z,8.23
2018-01-05T12:13:25.177Z,6.63
2018-01-05T12:15:54.096Z,8.13
2018-01-05T12:18:21.590Z,11.83
2018-01-05T12:20:49.307Z,6.43
2018-01-05T12:23:17.075Z,8.90
2018-01-05T12:25:44.839Z,10.10
2018-01-05T12:28:12.352Z,12.00
2018-01-05T12:30:40.067Z,16.40
2018-01-05T12:33:08.109Z,16.87
2018-01-05T12:35:36.196Z,23.37
2018-01-05T12:38:03.713Z,15.13
2018-01-05T12:40:31.211Z,13.33
2018-01-05T12:42:58.781Z,22.70
2018-01-05T12:45:26.992Z,12.80
2018-01-05T12:47:54.497Z,17.60
2018-01-05T12:50:22.452Z,12.57
2018-01-05T12:52:49.947Z,12.90
2018-01-05T12:55:17.468Z,16.53
2018-01-05T12:57:45.440Z,20.00
2018-01-05T13:00:12.927Z,8.03
2018-01-05T13:02:40.414Z,5.03
2018-01-05T13:05:08.124Z,12.00
2018-01-05T13:07:35.895Z,9.00
2018-01-05T13:10:03.383Z,6.40
2018-01-05T13:12:30.896Z,16.13
2018-01-05T13:14:58.995Z,19.33
2018-01-05T13:17:28.260Z,10.20
2018-01-05T13:19:55.943Z,15.07
2018-01-05T13:22:23.763Z,13.13
2018-01-05T13:24:51.490Z,6.43
2018-01-05T13:27:19.554Z,13.63
2018-01-05T13:29:47.258Z,8.53
2018-01-05T13:32:14.759Z,15.97
2018-01-05T13:34:42.844Z,12.30
2018-01-05T13:37:10.299Z,8.20
2018-01-05T13:39:38.223Z,8.70
2018-01-05T13:42:05.724Z,15.20
2018-01-05T13:44:33.316Z,21.17
2018-01-05T13:47:01.120Z,9.43
2018-01-05T13:49:28.796Z,7.90
2018-01-05T13:51:56.712Z,10.00
2018-01-05T13:54:24.973Z,4.87
2018-01-05T13:56:52.682Z,14.07
2018-01-05T13:59:20.173Z,9.47
2018-01-05T14:01:48.242Z,14.90
2018-01-05T14:04:15.995Z,11.57
2018-01-05T14:06:43.499Z,9.83
2018-01-05T14:09:11.175Z,6.90
2018-01-05T14:11:39.095Z,14.73
2018-01-05T14:14:06.772Z,6.50
2018-01-05T14:16:34.264Z,22.43
2018-01-05T14:19:01.768Z,10.87
2018-01-05T14:21:29.381Z,17.67
2018-01-05T14:23:56.875Z,8.63
2018-01-05T14:26:24.376Z,10.47
2018-01-05T14:28:52.377Z,11.90
2018-01-05T14:31:20.476Z,14.63
2018-01-05T14:33:47.988Z,17.23
2018-01-05T14:36:15.978Z,7.43
2018-01-05T14:38:43.762Z,12.60
2018-01-05T14:41:11.527Z,20.63
2018-01-05T14:43:39.436Z,9.03
2018-01-05T14:46:06.920Z,8.60
2018-01-05T14:48:34.513Z,8.17
2018-01-05T14:51:02.013Z,25.00
2018-01-05T14:53:29.731Z,15.27
2018-01-05T14:55:57.496Z,8.40
2018-01-05T14:58:25.018Z,11.73
2018-01-05T15:00:52.507Z,10.60
2018-01-05T15:03:20.025Z,10.60
2018-01-05T15:05:49.775Z,6.53
2018-01-05T15:08:17.278Z,15.23
2018-01-05T15:10:45.612Z,7.37
2018-01-05T15:13:13.333Z,11.43
2018-01-05T15:15:41.630Z,11.57
2018-01-05T15:18:09.211Z,10.50
2018-01-05T15:20:36.984Z,10.90
2018-01-05T15:23:04.756Z,10.60
2018-01-05T15:25:32.270Z,10.73
2018-01-05T15:27:59.952Z,11.83
2018-01-05T15:30:28.355Z,12.77
2018-01-05T15:32:55.852Z,11.70
2018-01-05T15:35:23.556Z,9.13
2018-01-05T15:37:51.057Z,14.47
2018-01-05T15:40:18.720Z,4.83
2018-01-05T15:42:46.248Z,15.80
2018-01-05T15:45:14.520Z,10.73
2018-01-05T15:47:42.999Z,12.77
2018-01-05T15:50:10.496Z,18.90
2018-01-05T15:52:38.396Z,18.20
2018-01-05T15:55:06.382Z,8.00
2018-01-05T15:57:34.278Z,11.60
2018-01-05T16:00:03.348Z,13.60
2018-01-05T16:02:30.846Z,5.70
2018-01-05T16:04:58.536Z,10.53
2018-01-05T16:07:26.600Z,10.20
2018-01-05T16:09:54.092Z,12.47
2018-01-05T16:12:21.604Z,15.27
2018-01-05T16:14:49.307Z,3.77
2018-01-05T16:17:16.814Z,9.10
2018-01-05T16:19:44.621Z,11.07
2018-01-05T16:22:12.248Z,12.87
2018-01-05T16:24:39.727Z,11.90
2018-01-05T16:27:07.233Z,9.30
2018-01-05T16:29:34.976Z,14.30
2018-01-05T16:32:02.485Z,17.63
2018-01-05T16:34:30.756Z,25.03
2018-01-05T16:36:58.262Z,9.13
2018-01-05T16:39:25.758Z,13.37
2018-01-05T16:41:53.665Z,7.73
2018-01-05T16:44:21.159Z,14.40
2018-01-05T16:46:49.311Z,6.63
2018-01-05T16:49:17.034Z,11.27
2018-01-05T16:51:45.946Z,14.50
2018-01-05T16:54:13.531Z,18.17
2018-01-05T16:56:41.019Z,18.37
2018-01-05T16:59:08.524Z,20.47
2018-01-05T17:01:36.207Z,9.83
2018-01-05T17:04:03.713Z,12.00
2018-01-05T17:06:31.425Z,9.87
2018-01-05T17:08:59.472Z,27.97
2018-01-05T17:11:27.571Z,20.33
2018-01-05T17:13:55.635Z,15.10
2018-01-05T17:16:23.136Z,22.90
2018-01-05T17:18:50.647Z,23.73
2018-01-05T17:21:18.564Z,16.20
2018-01-05T17:23:46.505Z,13.03
2018-01-05T17:26:14.131Z,16.60
2018-01-05T17:28:42.524Z,20.63
2018-01-05T17:31:10.300Z,10.57
2018-01-05T17:33:38.575Z,21.07
2018-01-05T17:36:06.133Z,13.40
2018-01-05T17:38:34.199Z,21.30
2018-01-05T17:41:03.382Z,20.20
2018-01-05T17:43:30.856Z,26.63
2018-01-05T17:45:58.760Z,18.57
2018-01-05T17:48:26.661Z,23.10
2018-01-05T17:50:54.219Z,22.10
2018-01-05T17:53:21.711Z,21.37
2018-01-05T17:55:50.727Z,14.33
2018-01-05T17:58:18.761Z,19.33
2018-01-05T18:00:46.650Z,16.70
2018-01-05T18:03:14.916Z,20.83
2018-01-05T18:05:42.827Z,25.03
2018-01-05T18:08:10.739Z,20.43
2018-01-05T18:10:38.631Z,13.20
2018-01-05T18:13:06.244Z,35.57
2018-01-05T18:15:33.743Z,21.70
2018-01-05T18:18:01.260Z,20.40
2018-01-05T18:20:30.183Z,29.10
2018-01-05T18:22:57.683Z,31.30
2018-01-05T18:25:25.207Z,16.20
2018-01-05T18:27:53.136Z,20.37
2018-01-05T18:30:20.631Z,39.27
2018-01-05T18:32:48.612Z,17.43
2018-01-05T18:35:16.669Z,22.77
2018-01-05T18:37:44.274Z,29.83
2018-01-05T18:40:11.767Z,15.87
2018-01-05T18:42:39.275Z,27.50
2018-01-05T18:45:07.548Z,37.20
2018-01-05T18:47:35.057Z,41.47
2018-01-05T18:50:03.377Z,25.30
2018-01-05T18:52:31.711Z,26.97
2018-01-05T18:54:59.215Z,22.50
2018-01-05T18:57:26.741Z,27.20
2018-01-05T18:59:54.398Z,23.90
2018-01-05T19:02:22.768Z,18.90
2018-01-05T19:04:50.660Z,25.47
2018-01-05T19:07:18.292Z,29.83
2018-01-05T19:09:46.197Z,26.47
2018-01-05T19:12:14.533Z,21.33
2018-01-05T19:14:42.044Z,25.90
2018-01-05T19:17:10.315Z,23.97
2018-01-05T19:19:38.221Z,31.80
2018-01-05T19:22:05.777Z,27.20
2018-01-05T19:24:33.695Z,24.90
2018-01-05T19:27:01.304Z,23.70
2018-01-05T19:29:29.359Z,20.80
2018-01-05T19:31:57.476Z,25.13
2018-01-05T19:34:24.983Z,23.30
2018-01-05T19:36:53.255Z,27.03
2018-01-05T19:39:21.069Z,21.17
2018-01-05T19:41:49.427Z,21.23
2018-01-05T19:44:17.211Z,25.17
2018-01-05T19:46:44.974Z,26.90
2018-01-05T19:49:13.323Z,21.73
2018-01-05T19:51:40.823Z,27.57
2018-01-05T19:54:08.335Z,23.13
2018-01-05T19:56:35.899Z,22.30
2018-01-05T19:59:03.407Z,29.73
2018-01-05T20:01:30.903Z,24.13
2018-01-05T20:03:59.025Z,31.53
2018-01-05T20:06:26.523Z,32.30
2018-01-05T20:08:54.263Z,27.77
2018-01-05T20:11:21.731Z,37.63
2018-01-05T20:13:50.180Z,39.57
2018-01-05T20:16:18.472Z,23.63
2018-01-05T20:18:45.993Z,22.40
2018-01-05T20:21:13.939Z,30.53
2018-01-05T20:23:42.140Z,27.27
2018-01-05T20:26:09.803Z,29.27
2018-01-05T20:28:38.186Z,27.50
2018-01-05T20:31:06.218Z,22.00
2018-01-05T20:33:33.738Z,31.20
2018-01-05T20:36:01.475Z,24.87
2018-01-05T20:38:28.983Z,23.20
2018-01-05T20:40:56.662Z,26.27
2018-01-05T20:43:24.572Z,29.90
2018-01-05T20:45:52.492Z,25.70
2018-01-05T20:48:20.601Z,26.30
2018-01-05T20:50:48.365Z,23.50
2018-01-05T20:53:15.866Z,31.40
2018-01-05T20:55:43.381Z,33.80
2018-01-05T20:58:11.042Z,31.40
2018-01-05T21:00:38.665Z,27.40
2018-01-05T21:03:06.268Z,33.43
2018-01-05T21:05:34.325Z,23.73
2018-01-05T21:08:02.097Z,41.33
2018-01-05T21:10:29.604Z,32.80
2018-01-05T21:12:57.311Z,21.70
2018-01-05T21:15:25.331Z,30.20
2018-01-05T21:17:52.826Z,30.00
2018-01-05T21:20:20.330Z,27.30
2018-01-05T21:22:48.059Z,31.10
2018-01-05T21:25:15.823Z,31.43
2018-01-05T21:27:43.893Z,30.77
2018-01-05T21:30:11.400Z,38.00
2018-01-05T21:32:39.726Z,32.63
2018-01-05T21:35:07.504Z,35.47
2018-01-05T21:37:37.278Z,33.77
2018-01-05T21:40:04.877Z,30.87
2018-01-05T21:42:32.650Z,29.03
2018-01-05T21:45:00.163Z,27.80
2018-01-05T21:47:27.973Z,30.20
2018-01-05T21:49:56.973Z,29.17
2018-01-05T21:52:24.497Z,25.23
2018-01-05T21:54:52.176Z,38.67
2018-01-05T21:57:21.337Z,27.37
2018-01-05T21:59:49.691Z,34.90
2018-01-05T22:02:17.204Z,30.00
2018-01-05T22:04:44.699Z,27.57
2018-01-05T22:07:12.412Z,29.33
2018-01-05T22:09:40.277Z,37.00
2018-01-05T22:12:08.871Z,29.13
2018-01-05T22:14:36.582Z,31.33
2018-01-05T22:17:04.395Z,30.47
2018-01-05T22:19:32.457Z,25.17
2018-01-05T22:22:00.795Z,31.47
2018-01-05T22:24:29.987Z,34.57
2018-01-05T22:26:57.619Z,26.70
2018-01-05T22:29:25.183Z,35.23
2018-01-05T22:31:52.716Z,27.00
2018-01-05T22:34:20.226Z,26.10
2018-01-05T22:36:47.727Z,34.20
2018-01-05T22:39:15.451Z,34.90
2018-01-05T22:41:44.170Z,29.43
2018-01-05T22:44:12.266Z,34.60
2018-01-05T22:46:39.879Z,33.90
2018-01-05T22:49:07.380Z,52.77
2018-01-05T22:51:36.530Z,36.83
2018-01-05T22:54:04.532Z,31.83
2018-01-05T22:56:32.295Z,35.97
2018-01-05T22:59:00.059Z,40.00
2018-01-05T23:01:28.127Z,31.57
2018-01-05T23:03:56.401Z,30.53
2018-01-05T23:06:24.872Z,36.37
2018-01-05T23:08:52.511Z,29.47
2018-01-05T23:11:21.334Z,30.23
2018-01-05T23:13:48.944Z,28.83
2018-01-05T23:16:17.479Z,35.63
2018-01-05T23:18:45.392Z,36.67
2018-01-05T23:21:13.659Z,36.97
2018-01-05T23:23:41.163Z,30.67
2018-01-05T23:26:09.452Z,34.57
2018-01-05T23:28:36.952Z,48.20
2018-01-05T23:31:04.856Z,47.37
2018-01-05T23:33:32.682Z,43.63
2018-01-05T23:36:01.878Z,35.43
2018-01-05T23:38:30.464Z,48.83
2018-01-05T23:40:57.964Z,31.60
2018-01-05T23:43:25.468Z,34.87
2018-01-05T23:45:54.130Z,35.50
2018-01-05T23:48:22.016Z,37.20
2018-01-05T23:50:49.543Z,33.23
2018-01-05T23:53:18.682Z,43.37
2018-01-05T23:55:46.183Z,37.03
2018-01-05T23:58:13.716Z,38.63
